sensor_id;sensor_type;location;lat;lon;timestamp;pressure;altitude;pressure_sealevel;temperature;humidity
38616;BME280;24370;51.986;4.666;2023-04-22T00:02:06;100915.47;;;17.50;51.61
38616;BME280;24370;51.986;4.666;2023-04-22T00:04:31;100897.84;;;17.50;50.67
38616;BME280;24370;51.986;4.666;2023-04-22T00:06:58;100903.41;;;17.66;51.04
38616;BME280;24370;51.986;4.666;2023-04-22T00:09:23;100906.97;;;17.41;51.28
38616;BME280;24370;51.986;4.666;2023-04-22T00:11:49;100908.78;;;17.87;49.88
38616;BME280;24370;51.986;4.666;2023-04-22T00:14:14;100910.78;;;17.58;49.63
38616;BME280;24370;51.986;4.666;2023-04-22T00:16:40;100913.34;;;16.60;52.24
38616;BME280;24370;51.986;4.666;2023-04-22T00:19:05;100916.25;;;17.04;50.96
38616;BME280;24370;51.986;4.666;2023-04-22T00:21:31;100917.72;;;16.34;53.79
38616;BME280;24370;51.986;4.666;2023-04-22T00:23:57;100910.41;;;16.42;53.75
38616;BME280;24370;51.986;4.666;2023-04-22T00:26:23;100915.91;;;16.90;52.06
38616;BME280;24370;51.986;4.666;2023-04-22T00:28:48;100916.25;;;15.67;56.84
38616;BME280;24370;51.986;4.666;2023-04-22T00:31:13;100912.84;;;16.22;54.05
38616;BME280;24370;51.986;4.666;2023-04-22T00:33:39;100910.44;;;16.14;55.16
38616;BME280;24370;51.986;4.666;2023-04-22T00:36:05;100903.91;;;16.26;54.28
38616;BME280;24370;51.986;4.666;2023-04-22T00:38:30;100903.59;;;16.89;53.26
38616;BME280;24370;51.986;4.666;2023-04-22T00:40:56;100897.03;;;16.74;52.14
38616;BME280;24370;51.986;4.666;2023-04-22T00:43:22;100904.66;;;16.83;52.19
38616;BME280;24370;51.986;4.666;2023-04-22T00:45:48;100900.00;;;16.65;52.04
38616;BME280;24370;51.986;4.666;2023-04-22T00:48:14;100904.00;;;16.76;52.19
38616;BME280;24370;51.986;4.666;2023-04-22T00:50:39;100909.03;;;16.83;51.45
38616;BME280;24370;51.986;4.666;2023-04-22T00:53:05;100915.16;;;16.04;52.58
38616;BME280;24370;51.986;4.666;2023-04-22T00:55:30;100916.47;;;15.91;54.84
38616;BME280;24370;51.986;4.666;2023-04-22T00:57:57;100920.66;;;16.52;53.30
38616;BME280;24370;51.986;4.666;2023-04-22T01:00:25;100914.06;;;16.65;53.39
38616;BME280;24370;51.986;4.666;2023-04-22T01:02:53;100915.34;;;17.05;50.74
38616;BME280;24370;51.986;4.666;2023-04-22T01:05:18;100919.91;;;16.48;52.87
38616;BME280;24370;51.986;4.666;2023-04-22T01:07:44;100920.25;;;16.64;51.15
38616;BME280;24370;51.986;4.666;2023-04-22T01:10:10;100926.69;;;16.55;51.51
38616;BME280;24370;51.986;4.666;2023-04-22T01:12:35;100917.59;;;16.37;51.81
38616;BME280;24370;51.986;4.666;2023-04-22T01:15:01;100913.78;;;16.48;51.35
38616;BME280;24370;51.986;4.666;2023-04-22T01:17:26;100918.53;;;16.63;50.30
38616;BME280;24370;51.986;4.666;2023-04-22T01:19:52;100912.44;;;16.34;51.20
38616;BME280;24370;51.986;4.666;2023-04-22T01:22:20;100906.75;;;16.47;51.52
38616;BME280;24370;51.986;4.666;2023-04-22T01:24:47;100915.19;;;16.31;50.76
38616;BME280;24370;51.986;4.666;2023-04-22T01:27:13;100910.94;;;16.27;51.81
38616;BME280;24370;51.986;4.666;2023-04-22T01:29:38;100914.69;;;16.20;52.08
38616;BME280;24370;51.986;4.666;2023-04-22T01:32:04;100912.94;;;16.19;53.05
38616;BME280;24370;51.986;4.666;2023-04-22T01:34:31;100911.66;;;16.31;51.79
38616;BME280;24370;51.986;4.666;2023-04-22T01:36:56;100914.41;;;16.27;52.47
38616;BME280;24370;51.986;4.666;2023-04-22T01:39:22;100919.34;;;16.38;51.48
38616;BME280;24370;51.986;4.666;2023-04-22T01:41:48;100904.75;;;16.28;51.13
38616;BME280;24370;51.986;4.666;2023-04-22T01:44:13;100899.88;;;16.16;51.92
38616;BME280;24370;51.986;4.666;2023-04-22T01:46:39;100907.16;;;15.77;52.42
38616;BME280;24370;51.986;4.666;2023-04-22T01:49:05;100908.59;;;16.44;50.81
38616;BME280;24370;51.986;4.666;2023-04-22T01:51:30;100907.28;;;16.31;51.40
38616;BME280;24370;51.986;4.666;2023-04-22T01:53:56;100907.63;;;15.92;52.88
38616;BME280;24370;51.986;4.666;2023-04-22T01:56:21;100909.69;;;16.37;51.37
38616;BME280;24370;51.986;4.666;2023-04-22T01:58:47;100910.41;;;16.16;51.58
38616;BME280;24370;51.986;4.666;2023-04-22T02:01:13;100909.41;;;16.20;51.04
38616;BME280;24370;51.986;4.666;2023-04-22T02:03:38;100907.84;;;16.13;51.68
38616;BME280;24370;51.986;4.666;2023-04-22T02:06:04;100902.25;;;16.23;51.04
38616;BME280;24370;51.986;4.666;2023-04-22T02:08:29;100901.63;;;16.15;51.70
38616;BME280;24370;51.986;4.666;2023-04-22T02:10:55;100918.78;;;16.00;52.27
38616;BME280;24370;51.986;4.666;2023-04-22T02:13:21;100914.00;;;15.85;53.17
38616;BME280;24370;51.986;4.666;2023-04-22T02:15:46;100920.13;;;15.85;51.93
38616;BME280;24370;51.986;4.666;2023-04-22T02:18:12;100918.59;;;16.06;51.71
38616;BME280;24370;51.986;4.666;2023-04-22T02:20:38;100919.03;;;16.21;51.23
38616;BME280;24370;51.986;4.666;2023-04-22T02:23:04;100917.53;;;15.84;53.43
38616;BME280;24370;51.986;4.666;2023-04-22T02:25:29;100918.56;;;15.78;53.03
38616;BME280;24370;51.986;4.666;2023-04-22T02:27:56;100918.53;;;15.50;54.56
38616;BME280;24370;51.986;4.666;2023-04-22T02:30:21;100914.00;;;15.85;53.55
38616;BME280;24370;51.986;4.666;2023-04-22T02:32:47;100916.00;;;15.14;54.86
38616;BME280;24370;51.986;4.666;2023-04-22T02:35:12;100912.66;;;14.75;56.52
38616;BME280;24370;51.986;4.666;2023-04-22T02:37:38;100911.16;;;15.31;54.76
38616;BME280;24370;51.986;4.666;2023-04-22T02:40:04;100903.69;;;15.47;54.04
38616;BME280;24370;51.986;4.666;2023-04-22T02:42:31;100903.94;;;15.06;54.59
38616;BME280;24370;51.986;4.666;2023-04-22T02:44:57;100895.25;;;15.64;52.92
38616;BME280;24370;51.986;4.666;2023-04-22T02:47:22;100894.75;;;15.21;53.45
38616;BME280;24370;51.986;4.666;2023-04-22T02:49:48;100889.34;;;14.95;55.21
38616;BME280;24370;51.986;4.666;2023-04-22T02:52:13;100887.69;;;14.92;55.45
38616;BME280;24370;51.986;4.666;2023-04-22T02:54:39;100874.75;;;15.46;53.52
38616;BME280;24370;51.986;4.666;2023-04-22T02:57:04;100878.66;;;15.62;52.49
38616;BME280;24370;51.986;4.666;2023-04-22T02:59:30;100871.03;;;16.09;51.31
38616;BME280;24370;51.986;4.666;2023-04-22T03:01:56;100865.84;;;15.78;53.13
38616;BME280;24370;51.986;4.666;2023-04-22T03:04:21;100862.84;;;16.19;52.25
38616;BME280;24370;51.986;4.666;2023-04-22T03:06:50;100853.59;;;16.05;52.08
38616;BME280;24370;51.986;4.666;2023-04-22T03:09:16;100859.78;;;16.04;51.98
38616;BME280;24370;51.986;4.666;2023-04-22T03:11:41;100862.97;;;16.14;52.28
38616;BME280;24370;51.986;4.666;2023-04-22T03:14:07;100855.66;;;16.49;51.36
38616;BME280;24370;51.986;4.666;2023-04-22T03:16:32;100861.81;;;16.23;51.54
38616;BME280;24370;51.986;4.666;2023-04-22T03:18:58;100851.78;;;16.34;52.08
38616;BME280;24370;51.986;4.666;2023-04-22T03:21:23;100849.38;;;16.78;50.82
38616;BME280;24370;51.986;4.666;2023-04-22T03:23:48;100850.22;;;16.54;51.06
38616;BME280;24370;51.986;4.666;2023-04-22T03:26:14;100851.38;;;16.20;51.37
38616;BME280;24370;51.986;4.666;2023-04-22T03:28:39;100847.81;;;16.21;51.79
38616;BME280;24370;51.986;4.666;2023-04-22T03:31:04;100841.22;;;16.34;51.31
38616;BME280;24370;51.986;4.666;2023-04-22T03:33:30;100837.16;;;16.51;51.24
38616;BME280;24370;51.986;4.666;2023-04-22T03:35:55;100840.25;;;16.89;50.40
38616;BME280;24370;51.986;4.666;2023-04-22T03:38:21;100836.56;;;16.42;51.67
38616;BME280;24370;51.986;4.666;2023-04-22T03:40:46;100836.84;;;16.60;51.67
38616;BME280;24370;51.986;4.666;2023-04-22T03:43:11;100838.91;;;16.75;50.67
38616;BME280;24370;51.986;4.666;2023-04-22T03:45:37;100833.88;;;16.69;50.80
38616;BME280;24370;51.986;4.666;2023-04-22T03:48:02;100829.22;;;16.76;50.48
38616;BME280;24370;51.986;4.666;2023-04-22T03:50:27;100829.34;;;16.98;50.10
38616;BME280;24370;51.986;4.666;2023-04-22T03:52:53;100826.13;;;15.86;52.99
38616;BME280;24370;51.986;4.666;2023-04-22T03:55:18;100824.38;;;16.38;51.20
38616;BME280;24370;51.986;4.666;2023-04-22T03:57:44;100818.66;;;16.76;50.57
38616;BME280;24370;51.986;4.666;2023-04-22T04:00:10;100823.50;;;15.56;53.32
38616;BME280;24370;51.986;4.666;2023-04-22T04:02:36;100819.88;;;15.60;55.08
38616;BME280;24370;51.986;4.666;2023-04-22T04:05:01;100812.50;;;16.00;53.03
38616;BME280;24370;51.986;4.666;2023-04-22T04:07:26;100808.13;;;16.51;51.25
38616;BME280;24370;51.986;4.666;2023-04-22T04:09:52;100809.91;;;15.98;53.08
38616;BME280;24370;51.986;4.666;2023-04-22T04:12:17;100803.56;;;15.75;54.97
38616;BME280;24370;51.986;4.666;2023-04-22T04:14:43;100803.09;;;16.44;52.74
38616;BME280;24370;51.986;4.666;2023-04-22T04:17:08;100800.25;;;16.74;51.05
38616;BME280;24370;51.986;4.666;2023-04-22T04:19:34;100807.00;;;16.06;52.18
38616;BME280;24370;51.986;4.666;2023-04-22T04:22:00;100803.53;;;15.49;54.39
38616;BME280;24370;51.986;4.666;2023-04-22T04:24:25;100801.13;;;15.69;54.25
38616;BME280;24370;51.986;4.666;2023-04-22T04:26:51;100795.75;;;15.72;54.09
38616;BME280;24370;51.986;4.666;2023-04-22T04:29:17;100790.44;;;16.02;52.73
38616;BME280;24370;51.986;4.666;2023-04-22T04:31:44;100792.09;;;16.57;51.96
38616;BME280;24370;51.986;4.666;2023-04-22T04:34:09;100785.53;;;16.92;50.91
38616;BME280;24370;51.986;4.666;2023-04-22T04:36:35;100793.16;;;16.51;52.47
38616;BME280;24370;51.986;4.666;2023-04-22T04:39:00;100786.53;;;16.65;51.81
38616;BME280;24370;51.986;4.666;2023-04-22T04:41:26;100790.22;;;16.84;51.27
38616;BME280;24370;51.986;4.666;2023-04-22T04:43:52;100797.25;;;16.60;51.70
38616;BME280;24370;51.986;4.666;2023-04-22T04:46:17;100802.09;;;16.72;51.88
38616;BME280;24370;51.986;4.666;2023-04-22T04:48:44;100794.75;;;16.55;52.42
38616;BME280;24370;51.986;4.666;2023-04-22T04:51:10;100791.09;;;16.59;51.78
38616;BME280;24370;51.986;4.666;2023-04-22T04:53:36;100796.69;;;16.75;50.61
38616;BME280;24370;51.986;4.666;2023-04-22T04:56:02;100787.44;;;16.63;51.05
38616;BME280;24370;51.986;4.666;2023-04-22T04:58:28;100781.59;;;17.04;49.73
38616;BME280;24370;51.986;4.666;2023-04-22T05:00:53;100792.63;;;16.41;51.57
38616;BME280;24370;51.986;4.666;2023-04-22T05:03:18;100787.78;;;16.54;52.72
38616;BME280;24370;51.986;4.666;2023-04-22T05:05:44;100775.06;;;16.66;52.30
38616;BME280;24370;51.986;4.666;2023-04-22T05:08:12;100767.13;;;16.42;51.93
38616;BME280;24370;51.986;4.666;2023-04-22T05:10:37;100759.63;;;17.26;50.34
38616;BME280;24370;51.986;4.666;2023-04-22T05:13:06;100771.06;;;16.79;50.68
38616;BME280;24370;51.986;4.666;2023-04-22T05:15:32;100778.03;;;17.05;50.54
38616;BME280;24370;51.986;4.666;2023-04-22T05:17:57;100783.91;;;16.39;52.07
38616;BME280;24370;51.986;4.666;2023-04-22T05:20:23;100782.91;;;16.67;51.82
38616;BME280;24370;51.986;4.666;2023-04-22T05:22:48;100788.63;;;16.55;52.33
38616;BME280;24370;51.986;4.666;2023-04-22T05:25:14;100798.34;;;16.54;52.17
38616;BME280;24370;51.986;4.666;2023-04-22T05:27:40;100791.38;;;17.01;51.39
38616;BME280;24370;51.986;4.666;2023-04-22T05:30:06;100805.38;;;16.54;51.38
38616;BME280;24370;51.986;4.666;2023-04-22T05:32:32;100800.97;;;17.03;51.43
38616;BME280;24370;51.986;4.666;2023-04-22T05:34:57;100807.22;;;16.52;52.23
38616;BME280;24370;51.986;4.666;2023-04-22T05:37:22;100807.47;;;15.92;53.92
38616;BME280;24370;51.986;4.666;2023-04-22T05:39:48;100804.63;;;15.70;55.15
38616;BME280;24370;51.986;4.666;2023-04-22T05:42:13;100810.81;;;14.79;58.50
38616;BME280;24370;51.986;4.666;2023-04-22T05:44:39;100802.75;;;15.73;57.59
38616;BME280;24370;51.986;4.666;2023-04-22T05:47:04;100804.50;;;15.74;56.37
38616;BME280;24370;51.986;4.666;2023-04-22T05:49:29;100800.03;;;16.30;55.06
38616;BME280;24370;51.986;4.666;2023-04-22T05:51:55;100801.38;;;16.67;54.07
38616;BME280;24370;51.986;4.666;2023-04-22T05:54:20;100792.91;;;16.83;53.15
38616;BME280;24370;51.986;4.666;2023-04-22T05:56:45;100795.25;;;17.16;52.05
38616;BME280;24370;51.986;4.666;2023-04-22T05:59:11;100788.66;;;17.50;51.42
38616;BME280;24370;51.986;4.666;2023-04-22T06:01:37;100788.31;;;16.64;52.30
38616;BME280;24370;51.986;4.666;2023-04-22T06:04:06;100777.53;;;16.95;53.49
38616;BME280;24370;51.986;4.666;2023-04-22T06:06:34;100777.75;;;16.39;53.21
38616;BME280;24370;51.986;4.666;2023-04-22T06:08:59;100771.19;;;17.45;52.82
38616;BME280;24370;51.986;4.666;2023-04-22T06:11:25;100773.16;;;17.62;51.94
38616;BME280;24370;51.986;4.666;2023-04-22T06:13:50;100762.59;;;17.62;51.32
38616;BME280;24370;51.986;4.666;2023-04-22T06:16:15;100763.28;;;18.10;50.51
38616;BME280;24370;51.986;4.666;2023-04-22T06:18:41;100759.50;;;18.57;49.03
38616;BME280;24370;51.986;4.666;2023-04-22T06:21:07;100764.84;;;18.56;48.91
38616;BME280;24370;51.986;4.666;2023-04-22T06:23:33;100766.81;;;18.31;49.53
38616;BME280;24370;51.986;4.666;2023-04-22T06:25:58;100757.16;;;18.70;48.45
38616;BME280;24370;51.986;4.666;2023-04-22T06:28:25;100769.50;;;18.71;49.12
38616;BME280;24370;51.986;4.666;2023-04-22T06:30:51;100769.78;;;18.44;49.42
38616;BME280;24370;51.986;4.666;2023-04-22T06:33:16;100758.22;;;18.26;50.84
38616;BME280;24370;51.986;4.666;2023-04-22T06:35:42;100766.84;;;18.71;49.78
38616;BME280;24370;51.986;4.666;2023-04-22T06:38:07;100763.81;;;18.39;50.28
38616;BME280;24370;51.986;4.666;2023-04-22T06:40:32;100753.75;;;18.47;51.58
38616;BME280;24370;51.986;4.666;2023-04-22T06:42:58;100753.72;;;18.68;50.21
38616;BME280;24370;51.986;4.666;2023-04-22T06:45:24;100757.06;;;18.32;50.65
38616;BME280;24370;51.986;4.666;2023-04-22T06:47:51;100750.44;;;19.58;49.21
38616;BME280;24370;51.986;4.666;2023-04-22T06:50:18;100749.09;;;19.67;48.49
38616;BME280;24370;51.986;4.666;2023-04-22T06:52:44;100749.59;;;19.58;47.58
38616;BME280;24370;51.986;4.666;2023-04-22T06:55:11;100744.03;;;19.26;48.87
38616;BME280;24370;51.986;4.666;2023-04-22T06:57:36;100747.59;;;19.80;47.92
38616;BME280;24370;51.986;4.666;2023-04-22T07:00:06;100749.72;;;19.55;49.83
38616;BME280;24370;51.986;4.666;2023-04-22T07:02:34;100744.91;;;19.07;49.86
38616;BME280;24370;51.986;4.666;2023-04-22T07:05:00;100738.72;;;19.26;49.17
38616;BME280;24370;51.986;4.666;2023-04-22T07:07:25;100748.09;;;20.06;48.36
38616;BME280;24370;51.986;4.666;2023-04-22T07:09:51;100748.09;;;20.24;48.04
38616;BME280;24370;51.986;4.666;2023-04-22T07:12:16;100735.66;;;20.58;47.11
38616;BME280;24370;51.986;4.666;2023-04-22T07:14:45;100735.47;;;19.21;50.08
38616;BME280;24370;51.986;4.666;2023-04-22T07:17:11;100743.63;;;19.53;47.83
38616;BME280;24370;51.986;4.666;2023-04-22T07:19:37;100756.50;;;19.97;48.83
38616;BME280;24370;51.986;4.666;2023-04-22T07:22:04;100750.03;;;20.71;46.59
38616;BME280;24370;51.986;4.666;2023-04-22T07:24:31;100757.34;;;19.97;47.58
38616;BME280;24370;51.986;4.666;2023-04-22T07:26:57;100744.00;;;21.01;45.74
38616;BME280;24370;51.986;4.666;2023-04-22T07:29:22;100739.47;;;21.35;45.43
38616;BME280;24370;51.986;4.666;2023-04-22T07:31:47;100748.75;;;20.78;45.12
38616;BME280;24370;51.986;4.666;2023-04-22T07:34:13;100750.78;;;21.23;45.21
38616;BME280;24370;51.986;4.666;2023-04-22T07:36:39;100744.16;;;21.62;44.53
38616;BME280;24370;51.986;4.666;2023-04-22T07:39:04;100753.69;;;21.34;46.11
38616;BME280;24370;51.986;4.666;2023-04-22T07:41:30;100762.38;;;22.14;44.56
38616;BME280;24370;51.986;4.666;2023-04-22T07:43:55;100749.13;;;22.72;43.25
38616;BME280;24370;51.986;4.666;2023-04-22T07:46:21;100741.16;;;23.43;40.53
38616;BME280;24370;51.986;4.666;2023-04-22T07:48:46;100754.97;;;23.90;41.45
38616;BME280;24370;51.986;4.666;2023-04-22T07:51:12;100763.53;;;22.25;41.13
38616;BME280;24370;51.986;4.666;2023-04-22T07:53:37;100746.47;;;24.10;40.50
38616;BME280;24370;51.986;4.666;2023-04-22T07:56:06;100741.13;;;24.87;39.44
38616;BME280;24370;51.986;4.666;2023-04-22T07:58:31;100730.44;;;24.87;38.07
38616;BME280;24370;51.986;4.666;2023-04-22T08:00:57;100726.50;;;25.66;35.87
38616;BME280;24370;51.986;4.666;2023-04-22T08:03:22;100726.84;;;26.44;35.18
38616;BME280;24370;51.986;4.666;2023-04-22T08:05:48;100709.22;;;26.75;34.98
38616;BME280;24370;51.986;4.666;2023-04-22T08:08:13;100706.94;;;27.14;34.12
38616;BME280;24370;51.986;4.666;2023-04-22T08:10:38;100700.84;;;27.77;31.77
38616;BME280;24370;51.986;4.666;2023-04-22T08:13:04;100701.81;;;27.55;32.20
38616;BME280;24370;51.986;4.666;2023-04-22T08:15:30;100717.47;;;27.71;32.22
38616;BME280;24370;51.986;4.666;2023-04-22T08:17:55;100715.72;;;28.54;31.04
38616;BME280;24370;51.986;4.666;2023-04-22T08:20:21;100722.25;;;27.67;32.27
38616;BME280;24370;51.986;4.666;2023-04-22T08:22:46;100710.13;;;27.08;31.31
38616;BME280;24370;51.986;4.666;2023-04-22T08:25:12;100715.38;;;26.87;33.15
38616;BME280;24370;51.986;4.666;2023-04-22T08:27:38;100723.19;;;26.79;34.85
38616;BME280;24370;51.986;4.666;2023-04-22T08:30:05;100731.69;;;26.27;32.93
38616;BME280;24370;51.986;4.666;2023-04-22T08:32:31;100718.38;;;26.03;33.60
38616;BME280;24370;51.986;4.666;2023-04-22T08:34:56;100725.00;;;26.55;35.29
38616;BME280;24370;51.986;4.666;2023-04-22T08:37:21;100716.97;;;27.77;33.19
38616;BME280;24370;51.986;4.666;2023-04-22T08:39:47;100718.50;;;28.43;30.53
38616;BME280;24370;51.986;4.666;2023-04-22T08:42:13;100707.59;;;28.66;30.79
38616;BME280;24370;51.986;4.666;2023-04-22T08:44:40;100713.19;;;28.01;30.94
38616;BME280;24370;51.986;4.666;2023-04-22T08:47:05;100716.75;;;27.69;32.40
38616;BME280;24370;51.986;4.666;2023-04-22T08:49:33;100706.31;;;27.54;32.54
38616;BME280;24370;51.986;4.666;2023-04-22T08:51:59;100702.81;;;28.17;31.63
38616;BME280;24370;51.986;4.666;2023-04-22T08:54:24;100693.88;;;28.38;30.38
38616;BME280;24370;51.986;4.666;2023-04-22T08:56:50;100685.97;;;29.47;28.90
38616;BME280;24370;51.986;4.666;2023-04-22T08:59:16;100677.81;;;28.57;30.80
38616;BME280;24370;51.986;4.666;2023-04-22T09:01:43;100668.22;;;29.64;29.64
38616;BME280;24370;51.986;4.666;2023-04-22T09:04:09;100667.88;;;27.21;33.17
38616;BME280;24370;51.986;4.666;2023-04-22T09:06:36;100665.28;;;27.42;32.39
38616;BME280;24370;51.986;4.666;2023-04-22T09:09:02;100666.78;;;27.99;30.33
38616;BME280;24370;51.986;4.666;2023-04-22T09:11:29;100655.09;;;27.57;31.75
38616;BME280;24370;51.986;4.666;2023-04-22T09:13:55;100658.63;;;27.58;31.89
38616;BME280;24370;51.986;4.666;2023-04-22T09:16:20;100644.41;;;26.13;34.26
38616;BME280;24370;51.986;4.666;2023-04-22T09:18:45;100632.22;;;26.09;34.79
38616;BME280;24370;51.986;4.666;2023-04-22T09:21:11;100634.28;;;26.39;33.17
38616;BME280;24370;51.986;4.666;2023-04-22T09:23:50;100621.78;;;25.70;34.75
38616;BME280;24370;51.986;4.666;2023-04-22T09:26:25;100620.03;;;26.16;34.04
38616;BME280;24370;51.986;4.666;2023-04-22T09:28:55;100628.06;;;25.58;34.42
38616;BME280;24370;51.986;4.666;2023-04-22T09:31:26;100639.78;;;24.84;35.92
38616;BME280;24370;51.986;4.666;2023-04-22T09:33:55;100648.38;;;23.61;38.08
38616;BME280;24370;51.986;4.666;2023-04-22T09:36:28;100646.34;;;24.67;37.25
38616;BME280;24370;51.986;4.666;2023-04-22T09:38:54;100654.34;;;24.80;35.53
38616;BME280;24370;51.986;4.666;2023-04-22T09:41:31;100666.34;;;25.23;35.57
38616;BME280;24370;51.986;4.666;2023-04-22T09:43:58;100661.91;;;26.06;35.04
38616;BME280;24370;51.986;4.666;2023-04-22T09:46:24;100677.47;;;27.47;33.69
38616;BME280;24370;51.986;4.666;2023-04-22T09:48:51;100673.41;;;27.08;31.48
38616;BME280;24370;51.986;4.666;2023-04-22T09:51:18;100681.97;;;26.12;34.41
38616;BME280;24370;51.986;4.666;2023-04-22T09:53:44;100684.50;;;27.15;33.86
38616;BME280;24370;51.986;4.666;2023-04-22T09:56:20;100682.50;;;27.40;31.61
38616;BME280;24370;51.986;4.666;2023-04-22T09:58:51;100686.25;;;27.70;30.96
38616;BME280;24370;51.986;4.666;2023-04-22T10:01:18;100684.06;;;27.85;32.42
38616;BME280;24370;51.986;4.666;2023-04-22T10:03:44;100686.53;;;27.23;32.17
38616;BME280;24370;51.986;4.666;2023-04-22T10:06:09;100692.13;;;26.42;34.58
38616;BME280;24370;51.986;4.666;2023-04-22T10:08:35;100685.28;;;26.61;33.81
38616;BME280;24370;51.986;4.666;2023-04-22T10:11:00;100678.72;;;26.31;33.53
38616;BME280;24370;51.986;4.666;2023-04-22T10:13:26;100672.00;;;26.82;33.75
38616;BME280;24370;51.986;4.666;2023-04-22T10:15:52;100677.25;;;26.04;33.72
38616;BME280;24370;51.986;4.666;2023-04-22T10:18:26;100678.00;;;26.29;32.56
38616;BME280;24370;51.986;4.666;2023-04-22T10:20:53;100669.22;;;26.83;32.68
38616;BME280;24370;51.986;4.666;2023-04-22T10:23:22;100679.94;;;26.15;33.68
38616;BME280;24370;51.986;4.666;2023-04-22T10:25:48;100675.00;;;25.51;36.13
38616;BME280;24370;51.986;4.666;2023-04-22T10:28:16;100688.47;;;25.01;36.50
38616;BME280;24370;51.986;4.666;2023-04-22T10:30:41;100698.19;;;24.52;36.00
38616;BME280;24370;51.986;4.666;2023-04-22T10:38:37;100697.69;;;24.97;36.26
38616;BME280;24370;51.986;4.666;2023-04-22T10:41:03;100701.19;;;24.21;37.20
38616;BME280;24370;51.986;4.666;2023-04-22T10:43:47;100699.03;;;24.39;37.10
38616;BME280;24370;51.986;4.666;2023-04-22T10:49:08;100703.03;;;24.97;36.55
38616;BME280;24370;51.986;4.666;2023-04-22T10:51:44;100694.44;;;24.67;36.69
38616;BME280;24370;51.986;4.666;2023-04-22T10:59:31;100687.03;;;25.45;35.25
38616;BME280;24370;51.986;4.666;2023-04-22T11:02:04;100679.50;;;24.65;36.57
38616;BME280;24370;51.986;4.666;2023-04-22T11:04:30;100660.50;;;24.94;36.46
38616;BME280;24370;51.986;4.666;2023-04-22T11:10:07;100677.06;;;24.36;39.43
38616;BME280;24370;51.986;4.666;2023-04-22T11:15:16;100715.41;;;23.14;39.33
38616;BME280;24370;51.986;4.666;2023-04-22T11:17:43;100720.84;;;23.95;39.40
38616;BME280;24370;51.986;4.666;2023-04-22T11:20:10;100698.97;;;23.75;40.47
38616;BME280;24370;51.986;4.666;2023-04-22T11:22:39;100701.25;;;23.14;42.34
38616;BME280;24370;51.986;4.666;2023-04-22T11:25:05;100713.75;;;22.56;42.26
38616;BME280;24370;51.986;4.666;2023-04-22T11:27:31;100730.88;;;21.92;43.62
38616;BME280;24370;51.986;4.666;2023-04-22T11:30:08;100744.75;;;20.87;46.63
38616;BME280;24370;51.986;4.666;2023-04-22T11:32:36;100736.97;;;21.00;46.49
38616;BME280;24370;51.986;4.666;2023-04-22T11:35:05;100737.56;;;21.05;46.98
38616;BME280;24370;51.986;4.666;2023-04-22T11:37:42;100727.53;;;21.42;46.12
38616;BME280;24370;51.986;4.666;2023-04-22T11:40:09;100728.59;;;22.00;46.34
38616;BME280;24370;51.986;4.666;2023-04-22T11:42:36;100722.84;;;22.23;46.41
38616;BME280;24370;51.986;4.666;2023-04-22T11:45:01;100706.25;;;21.42;47.20
38616;BME280;24370;51.986;4.666;2023-04-22T11:47:30;100709.19;;;21.22;47.35
38616;BME280;24370;51.986;4.666;2023-04-22T11:50:00;100728.03;;;20.69;49.13
38616;BME280;24370;51.986;4.666;2023-04-22T11:52:51;100723.41;;;20.22;49.58
38616;BME280;24370;51.986;4.666;2023-04-22T11:55:23;100710.41;;;19.99;49.99
38616;BME280;24370;51.986;4.666;2023-04-22T11:57:59;100711.06;;;19.68;52.00
38616;BME280;24370;51.986;4.666;2023-04-22T12:00:49;100711.19;;;20.53;50.97
38616;BME280;24370;51.986;4.666;2023-04-22T12:03:23;100729.09;;;20.65;50.02
38616;BME280;24370;51.986;4.666;2023-04-22T12:06:05;100748.13;;;19.50;52.67
38616;BME280;24370;51.986;4.666;2023-04-22T12:11:00;100688.00;;;19.88;51.76
38616;BME280;24370;51.986;4.666;2023-04-22T12:13:44;100677.72;;;19.81;51.65
38616;BME280;24370;51.986;4.666;2023-04-22T12:16:12;100660.00;;;20.82;50.62
38616;BME280;24370;51.986;4.666;2023-04-22T12:18:54;100653.13;;;20.29;51.99
38616;BME280;24370;51.986;4.666;2023-04-22T12:21:24;100655.38;;;20.70;50.25
38616;BME280;24370;51.986;4.666;2023-04-22T12:23:57;100687.59;;;20.13;52.26
38616;BME280;24370;51.986;4.666;2023-04-22T12:26:32;100693.53;;;21.63;49.29
38616;BME280;24370;51.986;4.666;2023-04-22T12:28:59;100711.31;;;20.33;51.44
38616;BME280;24370;51.986;4.666;2023-04-22T12:31:25;100710.78;;;20.43;51.35
38616;BME280;24370;51.986;4.666;2023-04-22T12:33:51;100708.22;;;20.41;51.27
38616;BME280;24370;51.986;4.666;2023-04-22T12:36:18;100703.78;;;20.42;51.23
38616;BME280;24370;51.986;4.666;2023-04-22T12:38:47;100706.91;;;19.45;53.69
38616;BME280;24370;51.986;4.666;2023-04-22T12:41:13;100691.72;;;20.19;51.49
38616;BME280;24370;51.986;4.666;2023-04-22T12:43:40;100701.41;;;20.20;51.24
38616;BME280;24370;51.986;4.666;2023-04-22T12:46:06;100704.72;;;20.07;52.86
38616;BME280;24370;51.986;4.666;2023-04-22T12:48:32;100708.06;;;19.39;53.71
38616;BME280;24370;51.986;4.666;2023-04-22T12:50:58;100700.44;;;20.21;52.32
38616;BME280;24370;51.986;4.666;2023-04-22T12:53:25;100697.34;;;20.12;51.35
38616;BME280;24370;51.986;4.666;2023-04-22T12:55:51;100696.41;;;18.88;53.76
38616;BME280;24370;51.986;4.666;2023-04-22T12:58:16;100694.00;;;19.20;55.43
38616;BME280;24370;51.986;4.666;2023-04-22T13:00:42;100711.03;;;19.50;52.97
38616;BME280;24370;51.986;4.666;2023-04-22T13:03:07;100720.34;;;19.59;52.60
38616;BME280;24370;51.986;4.666;2023-04-22T13:05:33;100723.06;;;19.58;50.98
38616;BME280;24370;51.986;4.666;2023-04-22T13:07:58;100714.19;;;19.76;51.70
38616;BME280;24370;51.986;4.666;2023-04-22T13:10:24;100702.78;;;20.60;49.66